sensor_id;sensor_type;location;lat;lon;timestamp;P1;durP1;ratioP1;P2;durP2;ratioP2
51660;SDS011;37741;49.748;8.490;2023-02-01T00:02:17;5.25;;;2.90;;
51660;SDS011;37741;49.748;8.490;2023-02-01T00:04:43;6.28;;;3.13;;
51660;SDS011;37741;49.748;8.490;2023-02-01T00:07:09;6.97;;;2.80;;
51660;SDS011;37741;49.748;8.490;2023-02-01T00:09:34;6.05;;;3.80;;
51660;SDS011;37741;49.748;8.490;2023-02-01T00:12:00;6.70;;;3.05;;
51660;SDS011;37741;49.748;8.490;2023-02-01T00:14:27;3.67;;;2.70;;
51660;SDS011;37741;49.748;8.490;2023-02-01T00:16:53;6.72;;;3.10;;
51660;SDS011;37741;49.748;8.490;2023-02-01T00:19:19;4.70;;;3.00;;
51660;SDS011;37741;49.748;8.490;2023-02-01T00:21:44;3.50;;;2.63;;
51660;SDS011;37741;49.748;8.490;2023-02-01T00:24:10;7.18;;;3.22;;
51660;SDS011;37741;49.748;8.490;2023-02-01T00:26:40;6.93;;;3.13;;
51660;SDS011;37741;49.748;8.490;2023-02-01T00:29:10;10.88;;;3.30;;
51660;SDS011;37741;49.748;8.490;2023-02-01T00:31:38;6.28;;;2.90;;
51660;SDS011;37741;49.748;8.490;2023-02-01T00:34:04;8.00;;;2.78;;
51660;SDS011;37741;49.748;8.490;2023-02-01T00:36:29;5.57;;;3.05;;
51660;SDS011;37741;49.748;8.490;2023-02-01T00:38:55;6.75;;;3.10;;
51660;SDS011;37741;49.748;8.490;2023-02-01T00:41:21;5.32;;;3.10;;
51660;SDS011;37741;49.748;8.490;2023-02-01T00:43:48;5.40;;;3.25;;
51660;SDS011;37741;49.748;8.490;2023-02-01T00:46:15;5.07;;;3.67;;
51660;SDS011;37741;49.748;8.490;2023-02-01T00:48:41;5.13;;;3.22;;
51660;SDS011;37741;49.748;8.490;2023-02-01T00:51:18;6.68;;;3.60;;
51660;SDS011;37741;49.748;8.490;2023-02-01T00:53:45;4.47;;;2.92;;
51660;SDS011;37741;49.748;8.490;2023-02-01T00:56:12;4.75;;;3.53;;
51660;SDS011;37741;49.748;8.490;2023-02-01T00:58:37;5.80;;;3.00;;
51660;SDS011;37741;49.748;8.490;2023-02-01T01:01:08;5.32;;;3.38;;
51660;SDS011;37741;49.748;8.490;2023-02-01T01:03:36;7.18;;;3.47;;
51660;SDS011;37741;49.748;8.490;2023-02-01T01:06:05;8.45;;;4.10;;
51660;SDS011;37741;49.748;8.490;2023-02-01T01:08:32;5.43;;;3.60;;
51660;SDS011;37741;49.748;8.490;2023-02-01T01:10:58;8.55;;;3.95;;
51660;SDS011;37741;49.748;8.490;2023-02-01T01:13:28;6.10;;;3.15;;
51660;SDS011;37741;49.748;8.490;2023-02-01T01:15:54;11.00;;;4.15;;
51660;SDS011;37741;49.748;8.490;2023-02-01T01:18:19;4.75;;;3.65;;
51660;SDS011;37741;49.748;8.490;2023-02-01T01:20:45;5.03;;;3.25;;
51660;SDS011;37741;49.748;8.490;2023-02-01T01:23:12;6.50;;;3.50;;
51660;SDS011;37741;49.748;8.490;2023-02-01T01:25:38;8.05;;;4.25;;
51660;SDS011;37741;49.748;8.490;2023-02-01T01:28:05;6.28;;;3.72;;
51660;SDS011;37741;49.748;8.490;2023-02-01T01:30:32;7.70;;;4.47;;
51660;SDS011;37741;49.748;8.490;2023-02-01T01:32:59;5.95;;;3.80;;
51660;SDS011;37741;49.748;8.490;2023-02-01T01:35:25;6.88;;;3.90;;
51660;SDS011;37741;49.748;8.490;2023-02-01T01:37:51;5.82;;;3.60;;
51660;SDS011;37741;49.748;8.490;2023-02-01T01:40:16;5.68;;;3.70;;
51660;SDS011;37741;49.748;8.490;2023-02-01T01:42:43;5.05;;;3.67;;
51660;SDS011;37741;49.748;8.490;2023-02-01T01:45:18;7.00;;;4.07;;
51660;SDS011;37741;49.748;8.490;2023-02-01T01:47:48;5.40;;;3.08;;
51660;SDS011;37741;49.748;8.490;2023-02-01T01:50:19;5.60;;;4.18;;
51660;SDS011;37741;49.748;8.490;2023-02-01T01:52:54;8.13;;;4.20;;
51660;SDS011;37741;49.748;8.490;2023-02-01T01:55:22;4.47;;;3.15;;
51660;SDS011;37741;49.748;8.490;2023-02-01T01:57:53;5.85;;;3.90;;
51660;SDS011;37741;49.748;8.490;2023-02-01T02:02:54;5.10;;;3.73;;
51660;SDS011;37741;49.748;8.490;2023-02-01T02:05:24;4.97;;;3.75;;
51660;SDS011;37741;49.748;8.490;2023-02-01T02:07:50;9.60;;;3.90;;
51660;SDS011;37741;49.748;8.490;2023-02-01T02:10:18;7.55;;;3.60;;
51660;SDS011;37741;49.748;8.490;2023-02-01T02:12:44;5.90;;;3.85;;
51660;SDS011;37741;49.748;8.490;2023-02-01T02:15:13;6.97;;;3.45;;
51660;SDS011;37741;49.748;8.490;2023-02-01T02:17:55;6.85;;;3.97;;
51660;SDS011;37741;49.748;8.490;2023-02-01T02:23:19;5.93;;;3.45;;
51660;SDS011;37741;49.748;8.490;2023-02-01T02:28:57;5.88;;;3.60;;
51660;SDS011;37741;49.748;8.490;2023-02-01T02:34:32;6.13;;;3.30;;
51660;SDS011;37741;49.748;8.490;2023-02-01T02:40:07;5.65;;;3.67;;
51660;SDS011;37741;49.748;8.490;2023-02-01T02:46:07;6.68;;;3.55;;
51660;SDS011;37741;49.748;8.490;2023-02-01T02:49:15;8.48;;;3.70;;
51660;SDS011;37741;49.748;8.490;2023-02-01T02:51:46;5.97;;;3.65;;
51660;SDS011;37741;49.748;8.490;2023-02-01T02:54:43;6.35;;;3.33;;
51660;SDS011;37741;49.748;8.490;2023-02-01T02:57:14;6.15;;;3.70;;
51660;SDS011;37741;49.748;8.490;2023-02-01T03:00:03;6.30;;;3.35;;
51660;SDS011;37741;49.748;8.490;2023-02-01T03:02:52;4.13;;;2.97;;
51660;SDS011;37741;49.748;8.490;2023-02-01T03:05:39;6.18;;;3.85;;
51660;SDS011;37741;49.748;8.490;2023-02-01T03:08:10;5.72;;;3.53;;
51660;SDS011;37741;49.748;8.490;2023-02-01T03:13:38;4.95;;;3.40;;
51660;SDS011;37741;49.748;8.490;2023-02-01T03:21:15;7.25;;;3.78;;
51660;SDS011;37741;49.748;8.490;2023-02-01T03:23:44;5.22;;;3.33;;
51660;SDS011;37741;49.748;8.490;2023-02-01T03:26:13;7.10;;;4.13;;
51660;SDS011;37741;49.748;8.490;2023-02-01T03:28:43;4.75;;;3.45;;
51660;SDS011;37741;49.748;8.490;2023-02-01T03:31:13;5.82;;;3.53;;
51660;SDS011;37741;49.748;8.490;2023-02-01T03:33:39;5.60;;;3.83;;
51660;SDS011;37741;49.748;8.490;2023-02-01T03:38:58;5.80;;;3.92;;
51660;SDS011;37741;49.748;8.490;2023-02-01T03:41:49;8.13;;;4.22;;
51660;SDS011;37741;49.748;8.490;2023-02-01T03:44:22;6.45;;;3.80;;
51660;SDS011;37741;49.748;8.490;2023-02-01T03:52:36;8.65;;;4.20;;
51660;SDS011;37741;49.748;8.490;2023-02-01T03:55:07;5.97;;;4.70;;
51660;SDS011;37741;49.748;8.490;2023-02-01T03:57:44;6.82;;;4.22;;
51660;SDS011;37741;49.748;8.490;2023-02-01T04:00:21;5.70;;;3.53;;
51660;SDS011;37741;49.748;8.490;2023-02-01T04:02:48;6.72;;;4.35;;
51660;SDS011;37741;49.748;8.490;2023-02-01T04:05:14;7.30;;;3.92;;
51660;SDS011;37741;49.748;8.490;2023-02-01T04:07:40;6.70;;;4.45;;
51660;SDS011;37741;49.748;8.490;2023-02-01T04:10:06;7.63;;;4.38;;
51660;SDS011;37741;49.748;8.490;2023-02-01T04:12:32;7.07;;;4.10;;
51660;SDS011;37741;49.748;8.490;2023-02-01T04:14:57;6.25;;;3.97;;
51660;SDS011;37741;49.748;8.490;2023-02-01T04:17:23;5.82;;;4.22;;
51660;SDS011;37741;49.748;8.490;2023-02-01T04:19:49;6.80;;;3.53;;
51660;SDS011;37741;49.748;8.490;2023-02-01T04:22:14;6.93;;;4.20;;
51660;SDS011;37741;49.748;8.490;2023-02-01T04:24:40;7.70;;;4.40;;
51660;SDS011;37741;49.748;8.490;2023-02-01T04:27:05;5.97;;;4.13;;
51660;SDS011;37741;49.748;8.490;2023-02-01T04:29:31;5.55;;;4.18;;
51660;SDS011;37741;49.748;8.490;2023-02-01T04:31:57;5.43;;;3.90;;
51660;SDS011;37741;49.748;8.490;2023-02-01T04:34:22;5.60;;;3.50;;
51660;SDS011;37741;49.748;8.490;2023-02-01T04:36:49;4.95;;;3.22;;
51660;SDS011;37741;49.748;8.490;2023-02-01T04:39:15;7.47;;;3.92;;
51660;SDS011;37741;49.748;8.490;2023-02-01T04:41:41;7.65;;;3.90;;
51660;SDS011;37741;49.748;8.490;2023-02-01T04:44:08;4.43;;;3.17;;
51660;SDS011;37741;49.748;8.490;2023-02-01T04:46:38;3.80;;;2.70;;
51660;SDS011;37741;49.748;8.490;2023-02-01T04:49:04;4.65;;;3.20;;
51660;SDS011;37741;49.748;8.490;2023-02-01T04:51:31;6.85;;;3.88;;
51660;SDS011;37741;49.748;8.490;2023-02-01T04:53:57;6.88;;;3.70;;
51660;SDS011;37741;49.748;8.490;2023-02-01T04:56:22;7.30;;;3.67;;
51660;SDS011;37741;49.748;8.490;2023-02-01T04:58:48;9.45;;;3.35;;
51660;SDS011;37741;49.748;8.490;2023-02-01T05:01:14;3.50;;;2.40;;
51660;SDS011;37741;49.748;8.490;2023-02-01T05:03:39;6.28;;;2.78;;
51660;SDS011;37741;49.748;8.490;2023-02-01T05:06:05;7.68;;;3.25;;
51660;SDS011;37741;49.748;8.490;2023-02-01T05:08:34;3.83;;;2.30;;
51660;SDS011;37741;49.748;8.490;2023-02-01T05:10:59;4.78;;;2.72;;
51660;SDS011;37741;49.748;8.490;2023-02-01T05:13:27;5.90;;;2.80;;
51660;SDS011;37741;49.748;8.490;2023-02-01T05:16:12;8.38;;;2.90;;
51660;SDS011;37741;49.748;8.490;2023-02-01T05:18:37;6.78;;;2.67;;
51660;SDS011;37741;49.748;8.490;2023-02-01T05:21:03;4.88;;;1.92;;
51660;SDS011;37741;49.748;8.490;2023-02-01T05:23:29;4.65;;;2.40;;
51660;SDS011;37741;49.748;8.490;2023-02-01T05:25:58;5.22;;;2.40;;
51660;SDS011;37741;49.748;8.490;2023-02-01T05:28:25;4.68;;;3.13;;
51660;SDS011;37741;49.748;8.490;2023-02-01T05:30:51;5.07;;;2.28;;
51660;SDS011;37741;49.748;8.490;2023-02-01T05:33:17;5.00;;;2.22;;
51660;SDS011;37741;49.748;8.490;2023-02-01T05:35:42;6.22;;;2.58;;
51660;SDS011;37741;49.748;8.490;2023-02-01T05:38:08;5.13;;;2.03;;
51660;SDS011;37741;49.748;8.490;2023-02-01T05:40:33;5.50;;;2.13;;
51660;SDS011;37741;49.748;8.490;2023-02-01T05:42:59;5.50;;;2.70;;
51660;SDS011;37741;49.748;8.490;2023-02-01T05:45:24;4.68;;;1.90;;
51660;SDS011;37741;49.748;8.490;2023-02-01T05:47:50;4.65;;;2.08;;
51660;SDS011;37741;49.748;8.490;2023-02-01T05:50:16;3.15;;;2.20;;
51660;SDS011;37741;49.748;8.490;2023-02-01T05:52:41;3.63;;;2.03;;
51660;SDS011;37741;49.748;8.490;2023-02-01T05:55:07;4.43;;;1.70;;
51660;SDS011;37741;49.748;8.490;2023-02-01T05:57:33;7.00;;;1.98;;
51660;SDS011;37741;49.748;8.490;2023-02-01T05:59:58;5.45;;;2.20;;
51660;SDS011;37741;49.748;8.490;2023-02-01T06:02:24;4.25;;;1.75;;
51660;SDS011;37741;49.748;8.490;2023-02-01T06:04:50;3.40;;;1.80;;
51660;SDS011;37741;49.748;8.490;2023-02-01T06:07:16;3.80;;;2.28;;
51660;SDS011;37741;49.748;8.490;2023-02-01T06:09:42;4.20;;;1.73;;
51660;SDS011;37741;49.748;8.490;2023-02-01T06:12:07;4.70;;;2.13;;
51660;SDS011;37741;49.748;8.490;2023-02-01T06:14:33;6.07;;;2.42;;
51660;SDS011;37741;49.748;8.490;2023-02-01T06:16:59;3.75;;;1.90;;
51660;SDS011;37741;49.748;8.490;2023-02-01T06:19:25;4.65;;;1.95;;
51660;SDS011;37741;49.748;8.490;2023-02-01T06:21:51;5.05;;;2.00;;
51660;SDS011;37741;49.748;8.490;2023-02-01T06:24:16;3.75;;;1.50;;
51660;SDS011;37741;49.748;8.490;2023-02-01T06:26:42;3.33;;;1.77;;
51660;SDS011;37741;49.748;8.490;2023-02-01T06:29:11;3.47;;;1.92;;
51660;SDS011;37741;49.748;8.490;2023-02-01T06:31:37;3.88;;;2.13;;
51660;SDS011;37741;49.748;8.490;2023-02-01T06:34:03;3.53;;;1.80;;
51660;SDS011;37741;49.748;8.490;2023-02-01T06:36:29;3.08;;;1.77;;
51660;SDS011;37741;49.748;8.490;2023-02-01T06:38:55;2.70;;;1.65;;
51660;SDS011;37741;49.748;8.490;2023-02-01T06:41:24;5.18;;;1.90;;
51660;SDS011;37741;49.748;8.490;2023-02-01T06:43:50;4.30;;;2.08;;
51660;SDS011;37741;49.748;8.490;2023-02-01T06:46:16;4.10;;;2.42;;
51660;SDS011;37741;49.748;8.490;2023-02-01T06:48:42;3.00;;;1.48;;
51660;SDS011;37741;49.748;8.490;2023-02-01T06:51:41;4.80;;;2.35;;
51660;SDS011;37741;49.748;8.490;2023-02-01T06:54:00;5.97;;;2.65;;
51660;SDS011;37741;49.748;8.490;2023-02-01T06:56:25;5.35;;;2.10;;
51660;SDS011;37741;49.748;8.490;2023-02-01T06:58:52;4.63;;;2.58;;
51660;SDS011;37741;49.748;8.490;2023-02-01T07:01:18;5.75;;;2.60;;
51660;SDS011;37741;49.748;8.490;2023-02-01T07:03:50;4.65;;;2.13;;
51660;SDS011;37741;49.748;8.490;2023-02-01T07:06:16;4.60;;;2.33;;
51660;SDS011;37741;49.748;8.490;2023-02-01T07:08:43;5.45;;;2.53;;
51660;SDS011;37741;49.748;8.490;2023-02-01T07:11:10;6.00;;;2.10;;
51660;SDS011;37741;49.748;8.490;2023-02-01T07:13:37;4.88;;;2.13;;
51660;SDS011;37741;49.748;8.490;2023-02-01T07:16:04;4.75;;;2.20;;
51660;SDS011;37741;49.748;8.490;2023-02-01T07:18:32;5.57;;;2.97;;
51660;SDS011;37741;49.748;8.490;2023-02-01T07:20:58;5.18;;;2.40;;
51660;SDS011;37741;49.748;8.490;2023-02-01T07:23:24;5.28;;;2.30;;
51660;SDS011;37741;49.748;8.490;2023-02-01T07:25:56;5.05;;;2.63;;
51660;SDS011;37741;49.748;8.490;2023-02-01T07:28:24;5.03;;;1.98;;
51660;SDS011;37741;49.748;8.490;2023-02-01T07:30:50;4.55;;;2.20;;
51660;SDS011;37741;49.748;8.490;2023-02-01T07:33:20;5.07;;;2.40;;
51660;SDS011;37741;49.748;8.490;2023-02-01T07:35:47;5.25;;;3.00;;
51660;SDS011;37741;49.748;8.490;2023-02-01T07:38:14;3.80;;;2.30;;
51660;SDS011;37741;49.748;8.490;2023-02-01T07:40:40;6.30;;;3.22;;
51660;SDS011;37741;49.748;8.490;2023-02-01T07:43:06;4.45;;;2.42;;
51660;SDS011;37741;49.748;8.490;2023-02-01T07:45:32;4.57;;;2.53;;
51660;SDS011;37741;49.748;8.490;2023-02-01T07:48:02;4.55;;;2.60;;
51660;SDS011;37741;49.748;8.490;2023-02-01T07:50:28;5.15;;;2.72;;
51660;SDS011;37741;49.748;8.490;2023-02-01T07:52:54;5.05;;;2.70;;
51660;SDS011;37741;49.748;8.490;2023-02-01T07:55:20;5.55;;;2.78;;
51660;SDS011;37741;49.748;8.490;2023-02-01T07:57:46;7.13;;;2.67;;
51660;SDS011;37741;49.748;8.490;2023-02-01T08:00:11;5.70;;;2.70;;
51660;SDS011;37741;49.748;8.490;2023-02-01T08:02:59;5.70;;;2.88;;
51660;SDS011;37741;49.748;8.490;2023-02-01T08:05:26;5.40;;;2.95;;
51660;SDS011;37741;49.748;8.490;2023-02-01T08:07:52;4.55;;;2.50;;
51660;SDS011;37741;49.748;8.490;2023-02-01T08:10:18;7.80;;;2.88;;
51660;SDS011;37741;49.748;8.490;2023-02-01T08:12:44;4.30;;;2.30;;
51660;SDS011;37741;49.748;8.490;2023-02-01T08:15:13;6.43;;;3.92;;
51660;SDS011;37741;49.748;8.490;2023-02-01T08:17:49;5.28;;;2.78;;
51660;SDS011;37741;49.748;8.490;2023-02-01T08:20:16;5.28;;;2.40;;
51660;SDS011;37741;49.748;8.490;2023-02-01T08:22:42;4.80;;;2.75;;
51660;SDS011;37741;49.748;8.490;2023-02-01T08:25:08;4.55;;;2.65;;
51660;SDS011;37741;49.748;8.490;2023-02-01T08:27:34;5.18;;;2.58;;
51660;SDS011;37741;49.748;8.490;2023-02-01T08:29:59;5.53;;;2.40;;
51660;SDS011;37741;49.748;8.490;2023-02-01T08:32:26;8.60;;;3.08;;
51660;SDS011;37741;49.748;8.490;2023-02-01T08:34:52;7.28;;;2.45;;
51660;SDS011;37741;49.748;8.490;2023-02-01T08:37:18;7.05;;;2.63;;
51660;SDS011;37741;49.748;8.490;2023-02-01T08:39:43;10.10;;;3.00;;
51660;SDS011;37741;49.748;8.490;2023-02-01T08:42:10;5.03;;;2.83;;
51660;SDS011;37741;49.748;8.490;2023-02-01T08:44:54;11.48;;;3.20;;
51660;SDS011;37741;49.748;8.490;2023-02-01T08:47:20;5.80;;;2.50;;
51660;SDS011;37741;49.748;8.490;2023-02-01T08:49:47;6.78;;;2.50;;
51660;SDS011;37741;49.748;8.490;2023-02-01T08:52:12;12.82;;;5.05;;
51660;SDS011;37741;49.748;8.490;2023-02-01T08:54:38;5.55;;;2.70;;
51660;SDS011;37741;49.748;8.490;2023-02-01T08:57:05;4.45;;;2.70;;
51660;SDS011;37741;49.748;8.490;2023-02-01T08:59:32;9.50;;;2.78;;
51660;SDS011;37741;49.748;8.490;2023-02-01T09:01:57;8.77;;;3.47;;
51660;SDS011;37741;49.748;8.490;2023-02-01T09:04:23;7.82;;;2.60;;
51660;SDS011;37741;49.748;8.490;2023-02-01T09:06:49;8.15;;;3.20;;
51660;SDS011;37741;49.748;8.490;2023-02-01T09:09:14;8.50;;;3.90;;
51660;SDS011;37741;49.748;8.490;2023-02-01T09:11:40;7.95;;;3.63;;
51660;SDS011;37741;49.748;8.490;2023-02-01T09:14:05;5.90;;;3.00;;
51660;SDS011;37741;49.748;8.490;2023-02-01T09:16:31;9.02;;;3.15;;
51660;SDS011;37741;49.748;8.490;2023-02-01T09:18:56;5.95;;;2.72;;
51660;SDS011;37741;49.748;8.490;2023-02-01T09:21:22;5.60;;;3.17;;
51660;SDS011;37741;49.748;8.490;2023-02-01T09:23:49;10.60;;;4.03;;
51660;SDS011;37741;49.748;8.490;2023-02-01T09:26:16;8.23;;;3.33;;
51660;SDS011;37741;49.748;8.490;2023-02-01T09:28:41;8.73;;;3.67;;
51660;SDS011;37741;49.748;8.490;2023-02-01T09:31:07;8.82;;;3.00;;
51660;SDS011;37741;49.748;8.490;2023-02-01T09:33:33;12.35;;;4.18;;
51660;SDS011;37741;49.748;8.490;2023-02-01T09:35:59;12.18;;;3.42;;
51660;SDS011;37741;49.748;8.490;2023-02-01T09:38:26;8.02;;;3.03;;
51660;SDS011;37741;49.748;8.490;2023-02-01T09:40:53;11.65;;;3.38;;
51660;SDS011;37741;49.748;8.490;2023-02-01T09:43:32;8.60;;;2.95;;
51660;SDS011;37741;49.748;8.490;2023-02-01T09:48:31;11.00;;;3.45;;
51660;SDS011;37741;49.748;8.490;2023-02-01T09:50:59;10.77;;;3.35;;
51660;SDS011;37741;49.748;8.490;2023-02-01T09:53:37;10.18;;;3.20;;
51660;SDS011;37741;49.748;8.490;2023-02-01T09:56:10;11.82;;;2.90;;
51660;SDS011;37741;49.748;8.490;2023-02-01T09:58:41;8.32;;;3.30;;
51660;SDS011;37741;49.748;8.490;2023-02-01T10:01:27;8.07;;;2.95;;
51660;SDS011;37741;49.748;8.490;2023-02-01T10:18:12;10.05;;;2.97;;
51660;SDS011;37741;49.748;8.490;2023-02-01T10:21:04;8.52;;;3.10;;
51660;SDS011;37741;49.748;8.490;2023-02-01T10:26:23;6.68;;;2.42;;
51660;SDS011;37741;49.748;8.490;2023-02-01T10:28:53;12.38;;;2.72;;
51660;SDS011;37741;49.748;8.490;2023-02-01T10:31:29;9.43;;;2.85;;
51660;SDS011;37741;49.748;8.490;2023-02-01T10:33:59;8.43;;;2.42;;
51660;SDS011;37741;49.748;8.490;2023-02-01T10:36:34;13.10;;;3.10;;
51660;SDS011;37741;49.748;8.490;2023-02-01T10:39:05;8.98;;;2.90;;
51660;SDS011;37741;49.748;8.490;2023-02-01T10:41:35;10.52;;;2.70;;
51660;SDS011;37741;49.748;8.490;2023-02-01T10:44:04;8.10;;;2.28;;
51660;SDS011;37741;49.748;8.490;2023-02-01T10:46:36;13.63;;;3.47;;
51660;SDS011;37741;49.748;8.490;2023-02-01T10:49:02;9.68;;;3.17;;
51660;SDS011;37741;49.748;8.490;2023-02-01T10:51:32;15.48;;;2.83;;
51660;SDS011;37741;49.748;8.490;2023-02-01T10:54:11;9.43;;;2.97;;
51660;SDS011;37741;49.748;8.490;2023-02-01T10:56:43;7.80;;;2.20;;
51660;SDS011;37741;49.748;8.490;2023-02-01T10:59:17;4.93;;;1.83;;
51660;SDS011;37741;49.748;8.490;2023-02-01T11:01:45;9.13;;;2.53;;
51660;SDS011;37741;49.748;8.490;2023-02-01T11:04:16;8.07;;;2.03;;
51660;SDS011;37741;49.748;8.490;2023-02-01T11:06:46;8.07;;;2.35;;
51660;SDS011;37741;49.748;8.490;2023-02-01T11:09:17;13.18;;;2.33;;
51660;SDS011;37741;49.748;8.490;2023-02-01T11:16:54;11.13;;;2.42;;
51660;SDS011;37741;49.748;8.490;2023-02-01T11:19:22;12.77;;;3.10;;
51660;SDS011;37741;49.748;8.490;2023-02-01T11:21:52;9.18;;;3.03;;
51660;SDS011;37741;49.748;8.490;2023-02-01T11:24:22;7.55;;;2.42;;
51660;SDS011;37741;49.748;8.490;2023-02-01T11:26:53;10.88;;;2.50;;
51660;SDS011;37741;49.748;8.490;2023-02-01T11:29:24;7.57;;;2.33;;
51660;SDS011;37741;49.748;8.490;2023-02-01T11:31:55;10.77;;;3.08;;
51660;SDS011;37741;49.748;8.490;2023-02-01T11:34:24;6.43;;;2.30;;
51660;SDS011;37741;49.748;8.490;2023-02-01T11:36:53;8.40;;;2.65;;
51660;SDS011;37741;49.748;8.490;2023-02-01T11:39:26;7.72;;;2.47;;
51660;SDS011;37741;49.748;8.490;2023-02-01T11:42:14;8.10;;;2.97;;
51660;SDS011;37741;49.748;8.490;2023-02-01T11:44:42;11.55;;;3.20;;
51660;SDS011;37741;49.748;8.490;2023-02-01T11:49:57;9.32;;;3.10;;
51660;SDS011;37741;49.748;8.490;2023-02-01T12:03:52;6.13;;;2.22;;
51660;SDS011;37741;49.748;8.490;2023-02-01T12:06:45;10.38;;;2.60;;
51660;SDS011;37741;49.748;8.490;2023-02-01T12:20:15;12.25;;;2.67;;
51660;SDS011;37741;49.748;8.490;2023-02-01T12:23:06;10.07;;;2.58;;
51660;SDS011;37741;49.748;8.490;2023-02-01T12:28:26;9.25;;;2.60;;
51660;SDS011;37741;49.748;8.490;2023-02-01T12:34:19;7.70;;;2.88;;
51660;SDS011;37741;49.748;8.490;2023-02-01T12:39:39;6.40;;;1.63;;
51660;SDS011;37741;49.748;8.490;2023-02-01T12:42:15;8.63;;;2.65;;
51660;SDS011;37741;49.748;8.490;2023-02-01T12:44:54;6.97;;;1.65;;
51660;SDS011;37741;49.748;8.490;2023-02-01T12:50:50;10.75;;;2.42;;
51660;SDS011;37741;49.748;8.490;2023-02-01T12:53:42;10.93;;;2.70;;
51660;SDS011;37741;49.748;8.490;2023-02-01T12:56:30;8.23;;;2.22;;
51660;SDS011;37741;49.748;8.490;2023-02-01T12:59:16;13.30;;;3.13;;
51660;SDS011;37741;49.748;8.490;2023-02-01T13:04:34;7.32;;;2.60;;
51660;SDS011;37741;49.748;8.490;2023-02-01T13:07:06;11.25;;;2.40;;
51660;SDS011;37741;49.748;8.490;2023-02-01T13:12:13;8.63;;;2.67;;
51660;SDS011;37741;49.748;8.490;2023-02-01T13:15:09;10.18;;;1.73;;
51660;SDS011;37741;49.748;8.490;2023-02-01T13:17:36;10.13;;;2.55;;
51660;SDS011;37741;49.748;8.490;2023-02-01T13:20:16;6.85;;;1.80;;
51660;SDS011;37741;49.748;8.490;2023-02-01T13:25:49;11.50;;;2.45;;
51660;SDS011;37741;49.748;8.490;2023-02-01T13:31:15;9.80;;;2.40;;
51660;SDS011;37741;49.748;8.490;2023-02-01T13:33:56;8.15;;;1.90;;
51660;SDS011;37741;49.748;8.490;2023-02-01T13:39:43;9.20;;;2.42;;
51660;SDS011;37741;49.748;8.490;2023-02-01T13:42:30;9.57;;;3.33;;
51660;SDS011;37741;49.748;8.490;2023-02-01T13:45:04;12.25;;;2.58;;
51660;SDS011;37741;49.748;8.490;2023-02-01T13:47:39;6.15;;;2.10;;
51660;SDS011;37741;49.748;8.490;2023-02-01T13:52:42;9.05;;;3.10;;
51660;SDS011;37741;49.748;8.490;2023-02-01T13:57:38;5.93;;;2.00;;
51660;SDS011;37741;49.748;8.490;2023-02-01T14:00:26;8.52;;;2.33;;
51660;SDS011;37741;49.748;8.490;2023-02-01T14:09:05;9.13;;;3.58;;
51660;SDS011;37741;49.748;8.490;2023-02-01T14:11:03;11.02;;;2.70;;
51660;SDS011;37741;49.748;8.490;2023-02-01T14:13:37;7.38;;;2.35;;
51660;SDS011;37741;49.748;8.490;2023-02-01T14:24:12;9.43;;;2.45;;
51660;SDS011;37741;49.748;8.490;2023-02-01T14:26:41;8.45;;;2.85;;
51660;SDS011;37741;49.748;8.490;2023-02-01T14:36:48;8.05;;;2.33;;
51660;SDS011;37741;49.748;8.490;2023-02-01T14:39:31;7.53;;;2.70;;
51660;SDS011;37741;49.748;8.490;2023-02-01T14:42:55;9.65;;;3.00;;
51660;SDS011;37741;49.748;8.490;2023-02-01T14:53:01;12.82;;;3.15;;
51660;SDS011;37741;49.748;8.490;2023-02-01T14:58:16;9.15;;;2.65;;
51660;SDS011;37741;49.748;8.490;2023-02-01T15:00:54;9.25;;;3.10;;
51660;SDS011;37741;49.748;8.490;2023-02-01T15:03:28;10.32;;;2.50;;
51660;SDS011;37741;49.748;8.490;2023-02-01T15:06:19;14.63;;;3.53;;
51660;SDS011;37741;49.748;8.490;2023-02-01T15:14:42;7.82;;;2.38;;
51660;SDS011;37741;49.748;8.490;2023-02-01T15:17:18;5.05;;;2.22;;
51660;SDS011;37741;49.748;8.490;2023-02-01T15:19:54;10.25;;;2.13;;
51660;SDS011;37741;49.748;8.490;2023-02-01T15:22:21;10.40;;;2.42;;
51660;SDS011;37741;49.748;8.490;2023-02-01T15:24:59;6.43;;;1.65;;
51660;SDS011;37741;49.748;8.490;2023-02-01T15:27:26;8.15;;;2.55;;
51660;SDS011;37741;49.748;8.490;2023-02-01T15:29:53;8.00;;;2.00;;
51660;SDS011;37741;49.748;8.490;2023-02-01T15:32:32;8.32;;;2.33;;
51660;SDS011;37741;49.748;8.490;2023-02-01T15:35:00;10.93;;;2.67;;
51660;SDS011;37741;49.748;8.490;2023-02-01T15:37:26;10.90;;;2.58;;
51660;SDS011;37741;49.748;8.490;2023-02-01T15:40:03;11.38;;;2.65;;
51660;SDS011;37741;49.748;8.490;2023-02-01T15:42:47;9.43;;;2.60;;
51660;SDS011;37741;49.748;8.490;2023-02-01T15:45:20;9.68;;;2.45;;
51660;SDS011;37741;49.748;8.490;2023-02-01T15:47:50;8.55;;;2.70;;
51660;SDS011;37741;49.748;8.490;2023-02-01T15:50:20;12.23;;;2.45;;
51660;SDS011;37741;49.748;8.490;2023-02-01T15:52:48;11.13;;;3.30;;
51660;SDS011;37741;49.748;8.490;2023-02-01T16:00:51;8.40;;;1.90;;
51660;SDS011;37741;49.748;8.490;2023-02-01T16:03:36;9.68;;;2.33;;
51660;SDS011;37741;49.748;8.490;2023-02-01T16:06:08;9.00;;;2.67;;
51660;SDS011;37741;49.748;8.490;2023-02-01T16:08:36;7.25;;;2.42;;
51660;SDS011;37741;49.748;8.490;2023-02-01T16:11:16;6.28;;;1.90;;
51660;SDS011;37741;49.748;8.490;2023-02-01T16:13:57;8.27;;;2.08;;
51660;SDS011;37741;49.748;8.490;2023-02-01T16:16:24;8.48;;;2.97;;
51660;SDS011;37741;49.748;8.490;2023-02-01T16:18:51;7.82;;;2.17;;
51660;SDS011;37741;49.748;8.490;2023-02-01T16:21:16;8.50;;;2.08;;
51660;SDS011;37741;49.748;8.490;2023-02-01T16:23:42;7.22;;;2.22;;
51660;SDS011;37741;49.748;8.490;2023-02-01T16:26:08;6.28;;;2.20;;
51660;SDS011;37741;49.748;8.490;2023-02-01T16:28:36;9.10;;;2.35;;
51660;SDS011;37741;49.748;8.490;2023-02-01T16:31:01;8.88;;;2.40;;
51660;SDS011;37741;49.748;8.490;2023-02-01T16:33:27;10.25;;;2.88;;
51660;SDS011;37741;49.748;8.490;2023-02-01T16:35:54;8.88;;;2.67;;
51660;SDS011;37741;49.748;8.490;2023-02-01T16:38:25;7.35;;;2.50;;
51660;SDS011;37741;49.748;8.490;2023-02-01T16:40:51;9.80;;;2.72;;
51660;SDS011;37741;49.748;8.490;2023-02-01T16:43:21;11.98;;;3.65;;
51660;SDS011;37741;49.748;8.490;2023-02-01T16:45:48;5.30;;;2.38;;
51660;SDS011;37741;49.748;8.490;2023-02-01T16:50:52;8.82;;;2.30;;
51660;SDS011;37741;49.748;8.490;2023-02-01T16:53:21;7.30;;;2.22;;
51660;SDS011;37741;49.748;8.490;2023-02-01T16:55:48;7.60;;;2.33;;
51660;SDS011;37741;49.748;8.490;2023-02-01T16:58:15;8.52;;;2.78;;
51660;SDS011;37741;49.748;8.490;2023-02-01T17:00:41;9.10;;;2.58;;
51660;SDS011;37741;49.748;8.490;2023-02-01T17:03:09;9.88;;;2.20;;
51660;SDS011;37741;49.748;8.490;2023-02-01T17:05:36;7.35;;;2.30;;
51660;SDS011;37741;49.748;8.490;2023-02-01T17:08:04;12.30;;;3.35;;
51660;SDS011;37741;49.748;8.490;2023-02-01T17:10:31;7.35;;;2.15;;
51660;SDS011;37741;49.748;8.490;2023-02-01T17:12:57;9.30;;;2.03;;
51660;SDS011;37741;49.748;8.490;2023-02-01T17:15:26;5.35;;;2.53;;
51660;SDS011;37741;49.748;8.490;2023-02-01T17:17:59;10.82;;;3.00;;
51660;SDS011;37741;49.748;8.490;2023-02-01T17:20:26;8.40;;;2.33;;
51660;SDS011;37741;49.748;8.490;2023-02-01T17:22:56;7.22;;;2.55;;
51660;SDS011;37741;49.748;8.490;2023-02-01T17:25:22;10.38;;;2.60;;
51660;SDS011;37741;49.748;8.490;2023-02-01T17:27:49;12.52;;;3.20;;
51660;SDS011;37741;49.748;8.490;2023-02-01T17:30:15;9.68;;;2.60;;
51660;SDS011;37741;49.748;8.490;2023-02-01T17:32:42;7.57;;;2.75;;
51660;SDS011;37741;49.748;8.490;2023-02-01T17:35:21;10.32;;;3.15;;
51660;SDS011;37741;49.748;8.490;2023-02-01T17:37:48;12.23;;;3.63;;
51660;SDS011;37741;49.748;8.490;2023-02-01T17:40:14;6.57;;;2.60;;
51660;SDS011;37741;49.748;8.490;2023-02-01T17:42:40;9.88;;;3.15;;
51660;SDS011;37741;49.748;8.490;2023-02-01T17:48:05;10.15;;;2.78;;